createdAt,value
2019-06-10T00:00:35.089Z,17.67
2019-06-10T00:01:34.978Z,17.54
2019-06-10T00:02:34.905Z,17.57
2019-06-10T00:03:34.834Z,17.54
2019-06-10T00:04:34.761Z,17.54
2019-06-10T00:05:34.690Z,17.47
2019-06-10T00:06:34.617Z,17.51
2019-06-10T00:07:34.543Z,17.63
2019-06-10T00:08:34.471Z,17.69
2019-06-10T00:09:34.398Z,17.71
2019-06-10T00:10:34.327Z,17.66
2019-06-10T00:11:34.254Z,17.69
2019-06-10T00:12:34.181Z,17.76
2019-06-10T00:13:34.107Z,17.67
2019-06-10T00:14:34.036Z,17.70
2019-06-10T00:15:33.965Z,17.73
2019-06-10T00:16:33.890Z,17.69
2019-06-10T00:17:33.818Z,17.60
2019-06-10T00:18:41.522Z,17.60
2019-06-10T00:19:33.673Z,17.53
2019-06-10T00:20:33.601Z,17.50
2019-06-10T00:21:33.529Z,17.39
2019-06-10T00:22:33.456Z,17.40
2019-06-10T00:23:33.385Z,17.53
2019-06-10T00:24:33.312Z,17.55
2019-06-10T00:25:33.236Z,17.50
2019-06-10T00:26:33.165Z,17.54
2019-06-10T00:27:33.093Z,17.54
2019-06-10T00:28:33.021Z,17.51
2019-06-10T00:29:32.948Z,17.48
2019-06-10T00:30:32.875Z,17.58
2019-06-10T00:31:32.807Z,17.50
2019-06-10T00:32:32.731Z,17.53
2019-06-10T00:33:32.667Z,17.50
2019-06-10T00:34:35.020Z,17.54
2019-06-10T00:35:32.514Z,17.54
2019-06-10T00:36:32.441Z,17.51
2019-06-10T00:37:32.367Z,17.38
2019-06-10T00:38:32.298Z,17.39
2019-06-10T00:39:32.222Z,17.39
2019-06-10T00:40:32.152Z,17.39
2019-06-10T00:41:32.081Z,17.54
2019-06-10T00:42:32.006Z,17.54
2019-06-10T00:43:31.932Z,17.48
2019-06-10T00:44:31.861Z,17.55
2019-06-10T00:45:31.788Z,17.64
2019-06-10T00:46:31.789Z,17.57
2019-06-10T00:47:31.643Z,17.54
2019-06-10T00:48:32.281Z,17.44
2019-06-10T00:49:31.743Z,17.39
2019-06-10T00:50:31.424Z,17.39
2019-06-10T00:51:31.476Z,17.29
2019-06-10T00:52:31.283Z,17.23
2019-06-10T00:53:31.642Z,17.23
2019-06-10T00:54:31.353Z,17.21
2019-06-10T00:55:31.482Z,17.15
2019-06-10T00:56:30.991Z,17.10
2019-06-10T00:57:31.449Z,17.26
2019-06-10T00:58:31.937Z,17.20
2019-06-10T00:59:31.233Z,17.13
2019-06-10T01:00:31.760Z,17.14
2019-06-10T01:01:31.302Z,17.13
2019-06-10T01:02:31.844Z,17.08
2019-06-10T01:03:31.326Z,17.13
2019-06-10T01:04:31.913Z,17.05
2019-06-10T01:05:31.277Z,17.11
2019-06-10T01:06:31.797Z,17.07
2019-06-10T01:07:31.141Z,17.02
2019-06-10T01:08:31.603Z,17.10
2019-06-10T01:09:31.072Z,16.95
2019-06-10T01:10:31.628Z,16.92
2019-06-10T01:11:31.057Z,16.84
2019-06-10T01:12:31.605Z,16.90
2019-06-10T01:13:30.937Z,16.92
2019-06-10T01:14:31.879Z,16.88
2019-06-10T01:15:31.149Z,16.85
2019-06-10T01:16:31.648Z,16.93
2019-06-10T01:17:31.096Z,16.98
2019-06-10T01:18:37.434Z,16.88
2019-06-10T01:19:31.079Z,16.92
2019-06-10T01:20:29.245Z,16.95
2019-06-10T01:21:31.176Z,17.00
2019-06-10T01:22:31.464Z,17.05
2019-06-10T01:23:30.927Z,17.11
2019-06-10T01:24:31.282Z,17.05
2019-06-10T01:25:30.988Z,17.13
2019-06-10T01:26:30.835Z,17.13
2019-06-10T01:27:28.736Z,17.17
2019-06-10T01:28:31.197Z,17.23
2019-06-10T01:29:28.589Z,17.25
2019-06-10T01:30:31.079Z,17.25
2019-06-10T01:31:28.444Z,17.10
2019-06-10T01:32:31.025Z,17.26
2019-06-10T01:33:28.298Z,17.07
2019-06-10T01:34:28.226Z,17.15
2019-06-10T01:35:30.479Z,17.20
2019-06-10T01:36:28.080Z,17.21
2019-06-10T01:37:28.007Z,17.17
2019-06-10T01:38:27.934Z,17.23
2019-06-10T01:39:27.861Z,17.21
2019-06-10T01:40:27.789Z,17.30
2019-06-10T01:41:27.717Z,17.25
2019-06-10T01:42:27.644Z,17.28
2019-06-10T01:43:27.571Z,17.33
2019-06-10T01:44:27.499Z,17.30
2019-06-10T01:45:27.425Z,17.28
2019-06-10T01:46:27.354Z,17.28
2019-06-10T01:47:27.281Z,17.28
2019-06-10T01:48:40.603Z,17.21
2019-06-10T01:49:27.135Z,17.23
2019-06-10T01:50:27.062Z,17.26
2019-06-10T01:51:26.990Z,17.26
2019-06-10T01:52:26.918Z,17.28
2019-06-10T01:53:26.844Z,17.29
2019-06-10T01:54:26.771Z,17.26
2019-06-10T01:55:26.699Z,17.29
2019-06-10T01:56:26.626Z,17.32
2019-06-10T01:57:26.555Z,17.30
2019-06-10T01:58:26.481Z,17.30
2019-06-10T01:59:26.408Z,17.32
2019-06-10T02:00:26.335Z,17.29
2019-06-10T02:01:26.261Z,17.20
2019-06-10T02:02:26.190Z,17.18
2019-06-10T02:03:26.135Z,17.21
2019-06-10T02:04:26.047Z,17.23
2019-06-10T02:05:25.969Z,17.23
2019-06-10T02:06:26.086Z,17.17
2019-06-10T02:07:25.824Z,17.25
2019-06-10T02:08:25.752Z,17.17
2019-06-10T02:09:25.700Z,17.20
2019-06-10T02:10:25.606Z,17.20
2019-06-10T02:11:25.532Z,17.17
2019-06-10T02:12:25.461Z,17.17
2019-06-10T02:13:25.388Z,17.21
2019-06-10T02:14:25.324Z,17.17
2019-06-10T02:15:25.242Z,17.26
2019-06-10T02:16:25.168Z,17.17
2019-06-10T02:17:25.094Z,17.25
2019-06-10T02:18:25.022Z,17.15
2019-06-10T02:19:24.950Z,17.17
2019-06-10T02:20:24.878Z,17.23
2019-06-10T02:21:24.805Z,17.21
2019-06-10T02:22:24.737Z,17.21
2019-06-10T02:23:24.657Z,17.23
2019-06-10T02:24:24.687Z,17.25
2019-06-10T02:25:24.516Z,17.18
2019-06-10T02:26:24.438Z,17.20
2019-06-10T02:27:24.366Z,17.18
2019-06-10T02:28:24.296Z,17.14
2019-06-10T02:29:24.221Z,17.21
2019-06-10T02:30:39.418Z,17.20
2019-06-10T02:31:30.122Z,17.13
2019-06-10T02:32:31.856Z,17.26
2019-06-10T02:33:30.662Z,17.18
2019-06-10T02:34:27.316Z,17.21
2019-06-10T02:35:30.515Z,17.11
2019-06-10T02:36:31.135Z,17.18
2019-06-10T02:37:31.329Z,17.10
2019-06-10T02:38:33.213Z,17.11
2019-06-10T02:39:32.225Z,17.20
2019-06-10T02:40:31.780Z,17.17
2019-06-10T02:41:31.196Z,17.18
2019-06-10T02:42:30.235Z,17.20
2019-06-10T02:43:31.712Z,17.17
2019-06-10T02:44:32.251Z,17.13
2019-06-10T02:45:32.034Z,17.14
2019-06-10T02:46:30.646Z,17.20
2019-06-10T02:47:26.378Z,17.08
2019-06-10T02:48:30.102Z,17.03
2019-06-10T02:49:45.541Z,17.08
2019-06-10T02:50:29.316Z,17.13
2019-06-10T02:51:28.645Z,17.11
2019-06-10T02:52:31.531Z,17.08
2019-06-10T02:53:28.481Z,17.08
2019-06-10T02:54:28.785Z,17.03
2019-06-10T02:55:28.805Z,17.10
2019-06-10T02:56:29.889Z,16.93
2019-06-10T02:57:29.584Z,16.98
2019-06-10T02:58:30.399Z,16.98
2019-06-10T02:59:28.903Z,16.90
2019-06-10T03:00:34.204Z,16.99
2019-06-10T03:01:28.394Z,17.03
2019-06-10T03:02:23.754Z,16.92
2019-06-10T03:03:33.265Z,16.95
2019-06-10T03:04:26.734Z,16.93
2019-06-10T03:05:26.829Z,16.93
2019-06-10T03:06:29.870Z,17.00
2019-06-10T03:07:26.818Z,17.00
2019-06-10T03:08:26.627Z,17.08
2019-06-10T03:09:26.410Z,17.10
2019-06-10T03:10:26.754Z,17.15
2019-06-10T03:11:27.376Z,17.17
2019-06-10T03:12:24.001Z,17.07
2019-06-10T03:13:22.789Z,17.08
2019-06-10T03:14:22.651Z,17.13
2019-06-10T03:15:24.533Z,17.03
2019-06-10T03:16:23.062Z,17.10
2019-06-10T03:17:23.193Z,17.20
2019-06-10T03:18:21.744Z,17.21
2019-06-10T03:19:39.742Z,17.20
2019-06-10T03:20:23.057Z,17.20
2019-06-10T03:21:23.065Z,17.07
2019-06-10T03:22:22.584Z,17.11
2019-06-10T03:23:22.711Z,17.21
2019-06-10T03:24:22.415Z,17.17
2019-06-10T03:25:22.598Z,17.25
2019-06-10T03:26:21.896Z,17.14
2019-06-10T03:27:21.089Z,17.20
2019-06-10T03:28:19.918Z,17.21
2019-06-10T03:29:21.228Z,17.21
2019-06-10T03:30:22.042Z,17.07
2019-06-10T03:31:22.043Z,17.23
2019-06-10T03:32:21.970Z,17.20
2019-06-10T03:33:20.837Z,17.17
2019-06-10T03:34:21.640Z,17.25
2019-06-10T03:35:19.413Z,17.21
2019-06-10T03:36:20.151Z,17.11
2019-06-10T03:37:20.921Z,17.21
2019-06-10T03:38:20.901Z,17.17
2019-06-10T03:39:19.114Z,17.11
2019-06-10T03:40:19.040Z,17.10
2019-06-10T03:41:18.969Z,17.18
2019-06-10T03:42:18.892Z,17.10
2019-06-10T03:43:18.919Z,17.15
2019-06-10T03:44:18.937Z,17.13
2019-06-10T03:45:19.147Z,17.20
2019-06-10T03:46:19.038Z,17.13
2019-06-10T03:47:19.089Z,17.14
2019-06-10T03:48:19.117Z,17.10
2019-06-10T03:49:19.153Z,17.15
2019-06-10T03:50:19.227Z,17.11
2019-06-10T03:51:19.446Z,17.05
2019-06-10T03:52:19.313Z,17.08
2019-06-10T03:54:12.886Z,17.10
2019-06-10T03:55:12.249Z,17.08
2019-06-10T03:56:12.615Z,17.05
2019-06-10T03:58:57.838Z,17.03
2019-06-10T03:59:57.764Z,17.03
2019-06-10T04:00:57.693Z,17.05
2019-06-10T04:01:57.617Z,17.08
2019-06-10T04:02:57.877Z,17.08
2019-06-10T04:03:57.471Z,17.08
2019-06-10T04:04:57.398Z,17.05
2019-06-10T04:05:57.324Z,17.00
2019-06-10T04:06:57.252Z,17.03
2019-06-10T04:07:57.178Z,17.11
2019-06-10T04:08:57.105Z,17.08
2019-06-10T04:09:57.031Z,17.08
2019-06-10T04:10:56.960Z,17.03
2019-06-10T04:11:56.887Z,17.08
2019-06-10T04:12:56.812Z,16.98
2019-06-10T04:13:56.739Z,17.08
2019-06-10T04:14:56.664Z,17.07
2019-06-10T04:15:56.593Z,17.21
2019-06-10T04:16:56.721Z,17.08
2019-06-10T04:17:56.448Z,17.08
2019-06-10T04:18:56.474Z,17.08
2019-06-10T04:20:08.179Z,17.18
2019-06-10T04:20:56.227Z,17.17
2019-06-10T04:21:56.493Z,17.15
2019-06-10T04:22:56.107Z,17.15
2019-06-10T04:24:55.936Z,17.18
2019-06-10T04:25:55.861Z,17.13
2019-06-10T04:26:55.795Z,17.21
2019-06-10T04:27:55.716Z,17.20
2019-06-10T04:28:55.642Z,17.08
2019-06-10T04:29:55.670Z,17.25
2019-06-10T04:30:55.497Z,17.20
2019-06-10T04:31:55.424Z,17.14
2019-06-10T04:32:55.350Z,17.18
2019-06-10T04:33:55.307Z,17.21
2019-06-10T04:34:55.211Z,17.17
2019-06-10T04:35:55.170Z,17.21
2019-06-10T04:36:55.058Z,17.20
2019-06-10T04:37:55.215Z,17.30
2019-06-10T04:38:54.912Z,17.30
2019-06-10T04:39:57.540Z,17.29
2019-06-10T04:40:54.767Z,17.43
2019-06-10T04:41:54.723Z,17.39
2019-06-10T04:42:54.626Z,17.43
2019-06-10T04:43:54.548Z,17.50
2019-06-10T04:44:54.475Z,17.57
2019-06-10T04:45:54.403Z,17.55
2019-06-10T04:46:54.331Z,17.51
2019-06-10T04:47:54.258Z,17.53
2019-06-10T04:48:54.186Z,17.50
2019-06-10T04:49:54.113Z,17.51
2019-06-10T04:50:54.139Z,17.44
2019-06-10T04:51:53.969Z,17.38
2019-06-10T04:52:53.895Z,17.43
2019-06-10T04:53:53.823Z,17.39
2019-06-10T04:54:53.750Z,17.43
2019-06-10T04:55:53.781Z,17.43
2019-06-10T04:56:53.606Z,17.35
2019-06-10T04:57:53.534Z,17.26
2019-06-10T04:58:53.462Z,17.18
2019-06-10T04:59:53.398Z,17.21
2019-06-10T05:00:53.415Z,17.20
2019-06-10T05:01:53.243Z,17.17
2019-06-10T05:02:53.172Z,17.21
2019-06-10T05:03:53.099Z,17.33
2019-06-10T05:04:53.283Z,17.30
2019-06-10T05:05:52.953Z,17.35
2019-06-10T05:06:52.881Z,17.43
2019-06-10T05:07:52.813Z,17.43
2019-06-10T05:08:53.743Z,17.40
2019-06-10T05:09:52.665Z,17.48
2019-06-10T05:10:52.992Z,17.48
2019-06-10T05:11:52.520Z,17.51
2019-06-10T05:12:52.682Z,17.54
2019-06-10T05:13:53.309Z,17.60
2019-06-10T05:14:52.734Z,17.60
2019-06-10T05:15:52.756Z,17.64
2019-06-10T05:16:54.346Z,17.55
2019-06-10T05:17:52.678Z,17.67
2019-06-10T05:18:54.725Z,17.73
2019-06-10T05:19:53.061Z,17.70
2019-06-10T05:20:58.242Z,17.69
2019-06-10T05:21:52.451Z,17.81
2019-06-10T05:22:52.808Z,17.77
2019-06-10T05:23:52.188Z,17.76
2019-06-10T05:24:52.752Z,17.81
2019-06-10T05:25:52.658Z,17.91
2019-06-10T05:26:52.659Z,17.92
2019-06-10T05:27:52.314Z,17.92
2019-06-10T05:28:52.392Z,18.00
2019-06-10T05:29:52.714Z,18.02
2019-06-10T05:30:53.182Z,17.98
2019-06-10T05:31:52.288Z,18.07
2019-06-10T05:32:52.366Z,18.10
2019-06-10T05:33:52.965Z,18.21
2019-06-10T05:34:52.826Z,18.29
2019-06-10T05:35:52.858Z,18.46
2019-06-10T05:36:52.569Z,18.32
2019-06-10T05:37:52.742Z,18.34
2019-06-10T05:38:52.662Z,18.44
2019-06-10T05:39:52.560Z,18.35
2019-06-10T05:40:52.124Z,18.39
2019-06-10T05:41:52.947Z,18.31
2019-06-10T05:42:50.298Z,18.31
2019-06-10T05:43:52.369Z,18.44
2019-06-10T05:44:52.290Z,18.40
2019-06-10T05:45:50.072Z,18.43
2019-06-10T05:46:52.640Z,18.42
2019-06-10T05:47:49.933Z,18.39
2019-06-10T05:48:49.858Z,18.46
2019-06-10T05:49:49.785Z,18.42
2019-06-10T05:51:00.233Z,18.52
2019-06-10T05:51:49.642Z,18.58
2019-06-10T05:52:51.927Z,18.64
2019-06-10T05:53:49.500Z,18.74
2019-06-10T05:54:49.427Z,18.80
2019-06-10T05:55:49.356Z,18.83
2019-06-10T05:56:49.389Z,18.77
2019-06-10T05:57:49.214Z,18.89
2019-06-10T05:58:49.145Z,18.92
2019-06-10T05:59:49.070Z,19.11
2019-06-10T06:00:48.997Z,19.15
2019-06-10T06:01:48.927Z,19.08
2019-06-10T06:02:48.856Z,19.11
2019-06-10T06:03:48.783Z,19.25
2019-06-10T06:04:48.713Z,19.33
2019-06-10T06:05:48.641Z,19.48
2019-06-10T06:06:48.570Z,19.21
2019-06-10T06:08:01.398Z,19.23
2019-06-10T06:08:48.427Z,19.42
2019-06-10T06:09:48.356Z,19.42
2019-06-10T06:10:48.285Z,19.50
2019-06-10T06:11:48.217Z,19.42
2019-06-10T06:12:48.143Z,19.48
2019-06-10T06:13:48.073Z,19.36
2019-06-10T06:14:48.002Z,19.23
2019-06-10T06:15:47.929Z,19.25
2019-06-10T06:16:47.857Z,19.23
2019-06-10T06:18:03.254Z,19.38
2019-06-10T06:18:47.818Z,19.36
2019-06-10T06:19:47.645Z,19.28
2019-06-10T06:20:47.576Z,19.11
2019-06-10T06:21:47.980Z,19.14
2019-06-10T06:22:47.438Z,19.20
2019-06-10T06:23:47.361Z,19.25
2019-06-10T06:24:47.288Z,19.32
2019-06-10T06:25:47.244Z,19.24
2019-06-10T06:26:47.148Z,19.24
2019-06-10T06:27:47.074Z,19.23
2019-06-10T06:28:47.003Z,19.11
2019-06-10T06:29:46.958Z,19.11
2019-06-10T06:30:46.863Z,19.01
2019-06-10T06:31:46.791Z,19.05
2019-06-10T06:32:46.718Z,19.02
2019-06-10T06:33:46.648Z,18.94
2019-06-10T06:34:46.577Z,19.13
2019-06-10T06:35:46.825Z,19.11
2019-06-10T06:36:46.441Z,19.15
2019-06-10T06:37:46.362Z,19.11
2019-06-10T06:38:46.291Z,19.27
2019-06-10T06:39:46.220Z,19.35
2019-06-10T06:40:46.149Z,19.40
2019-06-10T06:41:46.077Z,19.40
2019-06-10T06:42:46.007Z,19.48
2019-06-10T06:43:45.941Z,19.53
2019-06-10T06:44:45.865Z,19.51
2019-06-10T06:45:45.798Z,19.42
2019-06-10T06:46:45.722Z,19.40
2019-06-10T06:47:45.653Z,19.40
2019-06-10T06:48:45.581Z,19.42
2019-06-10T06:49:45.508Z,19.42
2019-06-10T06:51:00.306Z,19.43
2019-06-10T06:51:54.798Z,19.46
2019-06-10T06:53:15.599Z,19.38
2019-06-10T06:53:52.140Z,19.54
2019-06-10T06:54:45.153Z,19.54
2019-06-10T06:55:45.085Z,19.53
2019-06-10T06:56:45.011Z,19.64
2019-06-10T06:57:44.942Z,19.68
2019-06-10T06:58:44.870Z,19.73
2019-06-10T06:59:44.800Z,19.78
2019-06-10T07:01:00.666Z,19.86
2019-06-10T07:01:44.716Z,19.87
2019-06-10T07:02:44.587Z,19.72
2019-06-10T07:03:45.261Z,19.75
2019-06-10T07:04:44.444Z,19.75
2019-06-10T07:05:44.374Z,19.73
2019-06-10T07:06:44.304Z,19.69
2019-06-10T07:07:44.235Z,19.69
2019-06-10T07:08:57.756Z,19.58
2019-06-10T07:09:44.092Z,19.53
2019-06-10T07:10:44.020Z,19.61
2019-06-10T07:11:45.160Z,19.75
2019-06-10T07:12:44.108Z,19.78
2019-06-10T07:13:45.832Z,19.68
2019-06-10T07:14:44.978Z,19.78
2019-06-10T07:15:46.862Z,19.69
2019-06-10T07:16:46.189Z,19.73
2019-06-10T07:17:45.701Z,19.87
2019-06-10T07:18:49.932Z,19.86
2019-06-10T07:19:45.741Z,20.05
2019-06-10T07:20:45.652Z,20.03
2019-06-10T07:22:02.294Z,19.78
2019-06-10T07:22:46.589Z,19.65
2019-06-10T07:23:46.645Z,19.60
2019-06-10T07:24:47.335Z,19.53
2019-06-10T07:25:47.137Z,19.58
2019-06-10T07:26:50.579Z,19.53
2019-06-10T07:27:45.185Z,19.64
2019-06-10T07:28:47.035Z,19.60
2019-06-10T07:29:46.911Z,19.72
2019-06-10T07:30:50.996Z,19.71
2019-06-10T07:31:45.979Z,19.91
2019-06-10T07:32:47.112Z,20.03
2019-06-10T07:33:46.781Z,20.06
2019-06-10T07:34:46.783Z,20.20
2019-06-10T07:35:45.041Z,20.28
2019-06-10T07:36:44.019Z,20.18
2019-06-10T07:37:44.450Z,20.12
2019-06-10T07:38:47.974Z,19.94
2019-06-10T07:39:45.158Z,19.97
2019-06-10T07:40:45.210Z,20.00
2019-06-10T07:41:45.170Z,20.09
2019-06-10T07:42:45.011Z,20.20
2019-06-10T07:43:47.557Z,20.30
2019-06-10T07:44:44.005Z,20.33
2019-06-10T07:45:45.869Z,20.37
2019-06-10T07:46:43.764Z,20.42
2019-06-10T07:47:43.778Z,20.56
2019-06-10T07:48:46.273Z,20.40
2019-06-10T07:49:43.877Z,20.59
2019-06-10T07:50:44.211Z,20.54
2019-06-10T07:51:43.812Z,20.54
2019-06-10T07:52:45.645Z,20.53
2019-06-10T07:53:44.615Z,20.56
2019-06-10T07:54:43.726Z,20.50
2019-06-10T07:55:42.094Z,20.53
2019-06-10T07:56:47.549Z,20.33
2019-06-10T07:57:43.970Z,20.20
2019-06-10T07:58:44.510Z,20.19
2019-06-10T07:59:42.923Z,20.15
2019-06-10T08:00:45.675Z,20.19
2019-06-10T08:01:45.949Z,20.16
2019-06-10T08:02:42.805Z,20.09
2019-06-10T08:03:40.278Z,20.18
2019-06-10T08:04:42.924Z,20.13
2019-06-10T08:05:40.811Z,20.23
2019-06-10T08:06:42.849Z,20.13
2019-06-10T08:07:41.498Z,20.13
2019-06-10T08:08:42.295Z,20.16
2019-06-10T08:09:41.673Z,20.13
2019-06-10T08:10:42.763Z,20.08
2019-06-10T08:11:39.737Z,20.19
2019-06-10T08:12:39.642Z,20.20
2019-06-10T08:13:39.571Z,20.10
2019-06-10T08:14:39.594Z,20.20
2019-06-10T08:15:39.730Z,20.13
2019-06-10T08:16:39.883Z,20.26
2019-06-10T08:17:40.425Z,20.42
2019-06-10T08:19:03.422Z,20.53
2019-06-10T08:19:43.085Z,20.61
2019-06-10T08:20:39.200Z,20.71
2019-06-10T08:21:40.623Z,20.80
2019-06-10T08:22:44.303Z,20.84
2019-06-10T08:23:40.195Z,20.79
2019-06-10T08:24:39.387Z,20.64
2019-06-10T08:25:38.729Z,20.66
2019-06-10T08:26:39.396Z,20.65
2019-06-10T08:27:38.610Z,20.57
2019-06-10T08:28:39.635Z,20.34
2019-06-10T08:29:38.686Z,20.28
2019-06-10T08:30:39.738Z,20.24
2019-06-10T08:31:38.825Z,20.24
2019-06-10T08:32:38.240Z,20.20
2019-06-10T08:33:39.016Z,20.15
2019-06-10T08:34:38.110Z,20.23
2019-06-10T08:35:47.198Z,20.28
2019-06-10T08:36:39.496Z,20.30
2019-06-10T08:37:38.122Z,20.30
2019-06-10T08:38:38.299Z,20.28
2019-06-10T08:39:38.254Z,20.42
2019-06-10T08:40:38.310Z,20.30
2019-06-10T08:41:38.455Z,20.35
2019-06-10T08:42:38.837Z,20.40
2019-06-10T08:43:38.535Z,20.31
2019-06-10T08:44:38.725Z,20.31
2019-06-10T08:45:37.332Z,20.31
2019-06-10T08:46:37.256Z,20.20
2019-06-10T08:47:37.187Z,20.24
2019-06-10T08:48:37.115Z,20.26
2019-06-10T08:49:37.124Z,20.19
2019-06-10T08:50:37.650Z,20.20
2019-06-10T08:51:37.152Z,20.13
2019-06-10T08:52:51.638Z,20.20
2019-06-10T08:53:37.380Z,20.24
2019-06-10T08:54:38.599Z,20.20
2019-06-10T08:55:37.418Z,20.06
2019-06-10T08:56:38.366Z,20.01
2019-06-10T08:57:38.427Z,20.03
2019-06-10T08:58:38.462Z,20.09
2019-06-10T08:59:38.362Z,20.09
2019-06-10T09:00:37.380Z,20.18
2019-06-10T09:01:36.203Z,20.13
2019-06-10T09:02:36.132Z,20.16
2019-06-10T09:03:36.062Z,20.12
2019-06-10T09:04:36.018Z,20.13
2019-06-10T09:05:35.921Z,20.16
2019-06-10T09:06:35.852Z,20.15
2019-06-10T09:07:35.782Z,20.09
2019-06-10T09:08:35.710Z,20.05
2019-06-10T09:09:35.641Z,20.10
2019-06-10T09:10:35.570Z,20.12
2019-06-10T09:11:35.499Z,20.28
2019-06-10T09:12:36.715Z,20.27
2019-06-10T09:13:35.359Z,20.38
2019-06-10T09:14:35.288Z,20.57
2019-06-10T09:15:35.219Z,20.69
2019-06-10T09:16:35.147Z,20.62
2019-06-10T09:17:35.080Z,20.62
2019-06-10T09:18:35.007Z,20.68
2019-06-10T09:19:34.939Z,20.76
2019-06-10T09:20:34.870Z,20.71
2019-06-10T09:21:34.798Z,20.71
2019-06-10T09:26:45.092Z,20.54
2019-06-10T09:27:46.485Z,20.56
2019-06-10T09:28:47.182Z,20.57
2019-06-10T09:29:47.835Z,20.57
2019-06-10T09:30:47.621Z,20.47
2019-06-10T09:31:46.777Z,20.38
2019-06-10T09:32:48.509Z,20.59
2019-06-10T09:33:49.940Z,20.69
2019-06-10T09:34:48.778Z,20.69
2019-06-10T09:35:46.152Z,20.82
2019-06-10T09:36:46.628Z,20.74
2019-06-10T09:37:48.439Z,20.69
2019-06-10T09:38:48.318Z,20.69
2019-06-10T09:39:49.835Z,20.68
2019-06-10T09:40:47.503Z,20.68
2019-06-10T09:41:50.246Z,20.75
2019-06-10T09:42:48.102Z,20.57
2019-06-10T09:43:46.716Z,20.56
2019-06-10T09:44:45.892Z,20.38
2019-06-10T09:45:45.941Z,20.54
2019-06-10T09:46:46.007Z,20.64
2019-06-10T09:47:45.618Z,20.62
2019-06-10T09:48:47.900Z,20.56
2019-06-10T09:49:45.353Z,20.65
2019-06-10T09:50:48.736Z,20.49
2019-06-10T09:51:45.865Z,20.42
2019-06-10T09:52:47.539Z,20.54
2019-06-10T09:53:50.269Z,20.68
2019-06-10T09:54:45.757Z,20.84
2019-06-10T09:55:44.512Z,20.89
2019-06-10T09:58:00.068Z,20.69
2019-06-10T09:58:58.960Z,20.64
2019-06-10T09:59:58.891Z,20.74
2019-06-10T10:01:03.224Z,20.86
2019-06-10T10:02:02.720Z,20.91
2019-06-10T10:02:58.681Z,21.14
2019-06-10T10:04:00.525Z,21.17
2019-06-10T10:04:58.797Z,21.24
2019-06-10T10:06:09.794Z,21.36
2019-06-10T10:06:58.401Z,21.30
2019-06-10T10:07:58.332Z,20.99
2019-06-10T10:08:58.641Z,20.89
2019-06-10T10:09:58.194Z,20.86
2019-06-10T10:10:59.146Z,20.91
2019-06-10T10:11:58.055Z,21.09
2019-06-10T10:12:57.984Z,21.30
2019-06-10T10:13:57.922Z,21.46
2019-06-10T10:14:57.847Z,21.60
2019-06-10T10:15:57.775Z,21.60
2019-06-10T10:22:18.759Z,21.41
2019-06-10T10:23:18.690Z,21.31
2019-06-10T10:24:18.207Z,21.21
2019-06-10T10:27:09.621Z,21.26
2019-06-10T10:31:26.154Z,21.41
2019-06-10T10:32:26.084Z,21.36
2019-06-10T10:33:29.928Z,21.46
2019-06-10T10:34:25.942Z,21.60
2019-06-10T10:35:25.873Z,21.74
2019-06-10T10:40:12.303Z,21.54
2019-06-10T10:42:16.415Z,21.57
2019-06-10T10:43:25.441Z,21.57
2019-06-10T10:44:16.274Z,21.49
2019-06-10T10:45:16.202Z,21.51
2019-06-10T10:46:16.201Z,21.63
2019-06-10T10:47:16.064Z,21.76
2019-06-10T10:48:15.993Z,22.01
2019-06-10T10:49:15.924Z,22.16
2019-06-10T10:50:15.853Z,22.04
2019-06-10T10:51:15.785Z,22.01
2019-06-10T10:52:15.716Z,22.08
2019-06-10T10:53:15.643Z,22.23
2019-06-10T10:54:27.895Z,22.49
2019-06-10T10:55:15.505Z,22.50
2019-06-10T10:56:15.444Z,22.52
2019-06-10T10:57:15.366Z,22.71
2019-06-10T10:58:15.296Z,22.86
2019-06-10T10:59:15.227Z,22.92
2019-06-10T11:00:15.158Z,23.04
2019-06-10T11:01:16.363Z,23.18
2019-06-10T11:02:15.034Z,23.34
2019-06-10T11:03:14.950Z,23.42
2019-06-10T11:04:14.881Z,23.60
2019-06-10T11:05:14.815Z,23.82
2019-06-10T11:06:14.745Z,24.15
2019-06-10T11:07:14.675Z,24.25
2019-06-10T11:09:02.102Z,24.34
2019-06-10T11:10:03.887Z,23.75
2019-06-10T11:11:05.066Z,23.55
2019-06-10T11:12:02.894Z,23.65
2019-06-10T11:13:02.377Z,23.45
2019-06-10T11:14:03.495Z,23.22
2019-06-10T11:15:04.927Z,23.12
2019-06-10T11:16:03.508Z,23.23
2019-06-10T11:17:02.879Z,23.11
2019-06-10T11:19:04.062Z,23.17
2019-06-10T11:20:04.001Z,22.86
2019-06-10T11:21:05.147Z,22.81
2019-06-10T11:22:03.895Z,23.02
2019-06-10T11:23:06.615Z,23.14
2019-06-10T11:24:04.823Z,23.02
2019-06-10T11:25:03.657Z,23.08
2019-06-10T11:26:03.606Z,22.96
2019-06-10T11:27:03.524Z,22.90
2019-06-10T11:28:04.227Z,22.72
2019-06-10T11:29:03.385Z,22.52
2019-06-10T11:30:03.319Z,22.15
2019-06-10T11:31:03.965Z,22.19
2019-06-10T11:32:03.252Z,22.13
2019-06-10T11:33:03.461Z,22.07
2019-06-10T11:34:03.286Z,22.00
2019-06-10T11:35:03.029Z,21.85
2019-06-10T11:36:03.047Z,21.95
2019-06-10T11:37:02.843Z,21.91
2019-06-10T11:38:52.932Z,21.85
2019-06-10T11:39:50.273Z,21.66
2019-06-10T11:40:52.274Z,21.78
2019-06-10T11:41:52.479Z,21.63
2019-06-10T11:42:50.496Z,21.78
2019-06-10T11:43:52.938Z,21.85
2019-06-10T11:44:51.243Z,22.04
2019-06-10T11:45:55.098Z,22.17
2019-06-10T11:46:51.843Z,22.24
2019-06-10T11:47:50.899Z,22.32
2019-06-10T11:48:49.609Z,22.30
2019-06-10T11:49:52.293Z,22.30
2019-06-10T11:50:49.442Z,22.34
2019-06-10T11:51:49.372Z,22.44
2019-06-10T11:52:49.694Z,22.38
2019-06-10T11:54:53.730Z,22.46
2019-06-10T11:55:42.408Z,22.47
2019-06-10T11:56:42.172Z,22.60
2019-06-10T11:57:42.445Z,22.86
2019-06-10T11:58:42.544Z,22.72
2019-06-10T11:59:43.451Z,23.00
2019-06-10T12:00:44.004Z,23.53
2019-06-10T12:03:36.604Z,24.17
2019-06-10T12:04:33.638Z,24.71
2019-06-10T12:05:33.571Z,25.59
2019-06-10T12:06:34.124Z,25.60
2019-06-10T12:07:33.408Z,25.28
2019-06-10T12:08:33.343Z,25.67
2019-06-10T12:09:33.559Z,25.60
2019-06-10T12:10:33.251Z,25.86
2019-06-10T12:11:34.376Z,25.70
2019-06-10T12:12:33.930Z,25.77
2019-06-10T12:13:34.476Z,25.92
2019-06-10T12:14:33.785Z,26.50
2019-06-10T12:16:12.656Z,26.46
2019-06-10T12:17:15.693Z,25.97
2019-06-10T12:17:43.165Z,26.46
2019-06-10T12:18:33.229Z,25.92
2019-06-10T12:19:34.109Z,25.25
2019-06-10T12:20:33.376Z,25.00
2019-06-10T12:21:33.188Z,25.34
2019-06-10T12:22:33.058Z,25.38
2019-06-10T12:23:33.723Z,25.30
2019-06-10T12:24:33.145Z,25.20
2019-06-10T12:25:38.778Z,24.73
2019-06-10T12:26:33.362Z,24.56
2019-06-10T12:27:32.830Z,24.25
2019-06-10T12:28:32.674Z,24.26
2019-06-10T12:29:31.992Z,24.48
2019-06-10T12:30:34.419Z,24.44
2019-06-10T12:31:34.528Z,24.63
2019-06-10T12:32:33.139Z,24.82
2019-06-10T12:33:33.647Z,24.69
2019-06-10T12:34:33.275Z,24.98
2019-06-10T12:35:33.310Z,24.97
2019-06-10T12:36:31.543Z,25.72
2019-06-10T12:37:33.645Z,26.30
2019-06-10T12:38:33.442Z,26.58
2019-06-10T12:39:31.351Z,27.09
2019-06-10T12:40:31.286Z,27.62
2019-06-10T12:41:33.180Z,27.92
2019-06-10T12:42:32.845Z,28.47
2019-06-10T12:43:32.592Z,28.25
2019-06-10T12:44:33.541Z,27.16
2019-06-10T12:45:32.611Z,26.61
2019-06-10T12:46:32.702Z,25.41
2019-06-10T12:47:33.167Z,25.20
2019-06-10T12:48:33.204Z,25.92
2019-06-10T12:49:32.069Z,26.38
2019-06-10T12:50:30.663Z,26.31
2019-06-10T12:51:32.682Z,25.75
2019-06-10T12:52:32.437Z,25.62
2019-06-10T12:53:32.587Z,25.30
2019-06-10T12:54:32.538Z,25.19
2019-06-10T12:55:40.180Z,25.09
2019-06-10T12:58:30.173Z,24.04
2019-06-10T12:59:32.266Z,23.83
2019-06-10T13:00:30.037Z,23.68
2019-06-10T13:01:32.817Z,23.70
2019-06-10T13:02:33.927Z,23.72
2019-06-10T13:03:32.622Z,23.74
2019-06-10T13:04:29.780Z,23.70
2019-06-10T13:05:29.714Z,23.75
2019-06-10T13:06:29.649Z,23.79
2019-06-10T13:07:32.348Z,23.82
2019-06-10T13:08:29.617Z,23.85
2019-06-10T13:09:29.452Z,23.78
2019-06-10T13:10:29.386Z,23.70
2019-06-10T13:11:29.321Z,23.67
2019-06-10T13:12:29.263Z,23.60
2019-06-10T13:13:29.187Z,23.56
2019-06-10T13:14:29.122Z,23.56
2019-06-10T13:15:29.054Z,23.23
2019-06-10T13:16:29.596Z,23.15
2019-06-10T13:17:28.922Z,23.15
2019-06-10T13:18:28.858Z,23.18
2019-06-10T13:19:28.787Z,23.08
2019-06-10T13:20:28.720Z,23.04
2019-06-10T13:21:28.655Z,23.14
2019-06-10T13:22:28.586Z,23.07
2019-06-10T13:23:31.758Z,23.04